Time;durP1;ratioP1;P1;durP2;ratioP2;P2;SDS_P1;SDS_P2;PMS_P1;PMS_P2;Temp;Humidity;BMP_temperature;BMP_pressure;BME280_temperature;BME280_humidity;BME280_pressure;Samples;Min_cycle;Max_cycle;Signal;HPM_P1;HPM_P2
2022/06/09 00:01:25;;;;;;;2.45;0.40;;;14.10;87.80;;;;;;5034947;28;20028;-76
2022/06/09 00:04:22;;;;;;;0.75;0.60;;;14.10;87.80;;;;;;5034897;28;20114;-76
2022/06/09 00:07:00;;;;;;;0.80;0.55;;;14.10;87.90;;;;;;5035097;28;20417;-76
2022/06/09 00:09:35;;;;;;;0.93;0.50;;;14.10;87.80;;;;;;5034714;28;20029;-77
2022/06/09 00:12:01;;;;;;;0.57;0.32;;;14.00;87.70;;;;;;5034818;28;20504;-77
2022/06/09 00:14:27;;;;;;;1.25;0.40;;;14.10;87.60;;;;;;5034720;28;20082;-77
2022/06/09 00:16:53;;;;;;;2.80;0.65;;;14.10;87.50;;;;;;5034384;28;20079;-77
2022/06/09 00:19:19;;;;;;;0.95;0.40;;;14.10;87.20;;;;;;5034828;28;20029;-77
2022/06/09 00:21:45;;;;;;;1.38;0.32;;;14.00;87.10;;;;;;5034804;28;20191;-77
2022/06/09 00:24:10;;;;;;;0.40;0.30;;;14.00;87.20;;;;;;5034908;28;20509;-77
2022/06/09 00:26:36;;;;;;;7.13;0.40;;;14.00;86.90;;;;;;5034856;28;20057;-77
2022/06/09 00:29:02;;;;;;;1.67;0.43;;;14.00;86.90;;;;;;5034700;28;20021;-77
2022/06/09 00:31:28;;;;;;;0.43;0.43;;;14.00;87.00;;;;;;5034991;28;20029;-77
2022/06/09 00:33:54;;;;;;;1.55;0.60;;;14.10;87.40;;;;;;5034855;28;20075;-77
2022/06/09 00:36:19;;;;;;;0.77;0.50;;;14.00;87.20;;;;;;5052380;28;20021;-77
2022/06/09 00:38:46;;;;;;;0.65;0.40;;;14.00;87.20;;;;;;5034928;28;20413;-77
2022/06/09 00:41:12;;;;;;;0.52;0.32;;;14.00;87.20;;;;;;5034860;28;20017;-77
2022/06/09 00:43:41;;;;;;;2.83;0.47;;;14.00;87.50;;;;;;5034575;28;20037;-77
2022/06/09 00:46:19;;;;;;;1.02;0.50;;;14.00;87.40;;;;;;5034234;28;20021;-77
2022/06/09 00:48:54;;;;;;;0.55;0.30;;;14.00;87.50;;;;;;5034755;28;20045;-77
2022/06/09 00:51:37;;;;;;;2.13;0.40;;;14.00;87.70;;;;;;5034721;28;20031;-77
2022/06/09 00:54:09;;;;;;;1.45;0.50;;;14.00;87.70;;;;;;5034404;28;20021;-77
2022/06/09 00:56:40;;;;;;;0.95;0.55;;;14.00;87.60;;;;;;5034631;28;20424;-77
2022/06/09 00:59:09;;;;;;;0.68;0.52;;;14.00;87.60;;;;;;5034700;28;20028;-77
2022/06/09 01:01:36;;;;;;;2.20;0.52;;;14.00;87.70;;;;;;5034532;28;20017;-77
2022/06/09 01:04:05;;;;;;;1.95;0.40;;;14.00;87.80;;;;;;5034532;28;20029;-77
2022/06/09 01:06:37;;;;;;;1.75;0.60;;;14.00;88.50;;;;;;5034608;28;20025;-77
2022/06/09 01:09:11;;;;;;;0.70;0.38;;;14.00;88.50;;;;;;5035166;28;20025;-77
2022/06/09 01:11:37;;;;;;;0.85;0.60;;;14.00;87.80;;;;;;5037872;28;20444;-77
2022/06/09 01:14:05;;;;;;;0.52;0.30;;;14.00;87.70;;;;;;5037830;28;20074;-77
2022/06/09 01:17:11;;;;;;;1.45;0.40;;;14.00;87.70;;;;;;5037855;28;20021;-77
2022/06/09 01:19:43;;;;;;;0.55;0.38;;;14.00;87.60;;;;;;5055862;28;20051;-77
2022/06/09 01:22:46;;;;;;;2.40;0.60;;;14.00;87.70;;;;;;5037449;28;20470;-77
2022/06/09 01:25:23;;;;;;;1.08;0.40;;;14.00;87.90;;;;;;5037688;28;20560;-77
2022/06/09 01:28:36;;;;;;;0.50;0.30;;;14.00;88.10;;;;;;5037610;28;20032;-76
2022/06/09 01:31:40;;;;;;;1.08;0.40;;;14.00;88.20;;;;;;4967543;28;20058;-77
2022/06/09 01:34:26;;;;;;;0.85;0.40;;;14.10;88.10;;;;;;5037713;28;20028;-76
2022/06/09 01:37:01;;;;;;;0.75;0.32;;;14.10;88.70;;;;;;5037838;28;20114;-77
2022/06/09 01:39:45;;;;;;;1.23;0.55;;;14.10;88.00;;;;;;5037303;28;20029;-76
2022/06/09 01:42:24;;;;;;;1.05;0.60;;;14.10;87.80;;;;;;5037332;28;20033;-77
2022/06/09 01:44:55;;;;;;;0.35;0.30;;;14.00;87.30;;;;;;5037413;28;20029;-77
2022/06/09 01:47:24;;;;;;;0.73;0.47;;;13.90;87.60;;;;;;5037443;28;20053;-77
2022/06/09 01:49:54;;;;;;;1.02;0.50;;;13.90;87.80;;;;;;5037222;28;20140;-76
2022/06/09 01:52:21;;;;;;;0.95;0.30;;;13.90;88.00;;;;;;5037049;28;20037;-77
2022/06/09 01:54:48;;;;;;;2.90;0.50;;;14.00;88.20;;;;;;5036958;28;20024;-77
2022/06/09 01:57:24;;;;;;;1.55;0.40;;;14.00;88.10;;;;;;5037232;28;20037;-77
2022/06/09 02:00:00;;;;;;;1.08;0.60;;;14.00;87.70;;;;;;5037407;28;20028;-77
2022/06/09 02:02:30;;;;;;;0.98;0.40;;;14.00;87.40;;;;;;5037086;28;20029;-77
2022/06/09 02:05:21;;;;;;;0.57;0.55;;;14.00;87.40;;;;;;5036926;28;20092;-77
2022/06/09 02:07:50;;;;;;;0.55;0.55;;;14.10;87.50;;;;;;5054993;28;20447;-77
2022/06/09 02:10:20;;;;;;;0.63;0.40;;;14.10;87.50;;;;;;5036990;28;20035;-77
2022/06/09 02:12:48;;;;;;;0.50;0.43;;;14.10;87.60;;;;;;5036660;28;20498;-76
2022/06/09 02:15:23;;;;;;;0.57;0.40;;;14.20;87.70;;;;;;5036449;28;20022;-77
2022/06/09 02:18:20;;;;;;;1.38;0.52;;;14.20;87.70;;;;;;5036771;28;20021;-76
2022/06/09 02:20:57;;;;;;;2.20;0.60;;;14.20;87.70;;;;;;5036541;28;20021;-77
2022/06/09 02:23:23;;;;;;;3.90;0.90;;;14.20;88.30;;;;;;5036854;28;20135;-78
2022/06/09 02:25:48;;;;;;;1.38;0.70;;;14.10;86.80;;;;;;5036978;28;20040;-77
2022/06/09 02:28:14;;;;;;;1.83;0.95;;;14.10;86.90;;;;;;5036771;28;20017;-77
2022/06/09 02:30:40;;;;;;;1.65;0.70;;;14.00;86.80;;;;;;5036627;28;20119;-77
2022/06/09 02:33:08;;;;;;;3.08;0.90;;;14.00;86.90;;;;;;5036507;28;20033;-77
2022/06/09 02:35:33;;;;;;;2.03;0.80;;;14.00;86.80;;;;;;5036661;28;20032;-77
2022/06/09 02:38:02;;;;;;;0.80;0.60;;;14.00;86.70;;;;;;5036658;28;20025;-77
2022/06/09 02:40:28;;;;;;;1.48;0.70;;;14.00;86.80;;;;;;5036171;28;20053;-77
2022/06/09 02:42:54;;;;;;;1.08;0.75;;;13.90;87.00;;;;;;5036240;28;20025;-77
2022/06/09 02:45:20;;;;;;;0.98;0.60;;;13.90;87.40;;;;;;5036356;28;20032;-77
2022/06/09 02:47:47;;;;;;;0.73;0.60;;;14.00;88.10;;;;;;5036224;28;20017;-76
2022/06/09 02:50:13;;;;;;;1.20;0.85;;;14.00;88.00;;;;;;5035977;28;20080;-77
2022/06/09 02:52:39;;;;;;;2.72;1.00;;;14.00;87.90;;;;;;5035811;28;20039;-77
2022/06/09 02:55:05;;;;;;;2.40;0.50;;;14.10;88.20;;;;;;5035797;28;20017;-77
2022/06/09 02:57:30;;;;;;;0.68;0.63;;;14.10;88.20;;;;;;5036058;28;20025;-77
2022/06/09 02:59:56;;;;;;;1.30;0.80;;;14.20;88.10;;;;;;5036224;28;20135;-77
2022/06/09 03:02:22;;;;;;;0.85;0.80;;;14.20;88.00;;;;;;5035824;28;20056;-76
2022/06/09 03:04:48;;;;;;;1.95;1.00;;;14.10;88.00;;;;;;5035780;28;20017;-76
2022/06/09 03:07:14;;;;;;;1.85;0.98;;;14.10;87.90;;;;;;5035768;28;20473;-76
2022/06/09 03:09:40;;;;;;;1.42;0.70;;;14.10;87.70;;;;;;5035636;28;20040;-76
2022/06/09 03:12:07;;;;;;;1.10;0.82;;;14.10;87.80;;;;;;5053681;28;20107;-76
2022/06/09 03:14:33;;;;;;;1.50;0.98;;;14.10;87.90;;;;;;5035458;28;20017;-77
2022/06/09 03:17:00;;;;;;;1.13;0.88;;;14.10;87.70;;;;;;5035503;28;20028;-76
2022/06/09 03:19:28;;;;;;;2.72;0.88;;;14.10;87.70;;;;;;5035817;28;20470;-76
2022/06/09 03:21:53;;;;;;;0.50;0.50;;;14.10;87.50;;;;;;5035314;28;20033;-77
2022/06/09 03:24:19;;;;;;;1.60;1.08;;;14.10;87.30;;;;;;5035570;28;20028;-76
2022/06/09 03:26:44;;;;;;;1.80;0.75;;;14.10;87.30;;;;;;5035402;28;20033;-76
2022/06/09 03:29:10;;;;;;;0.77;0.77;;;14.20;87.40;;;;;;5035573;28;20154;-76
2022/06/09 03:31:36;;;;;;;2.72;1.10;;;14.20;87.40;;;;;;5034669;28;20029;-76
2022/06/09 03:34:02;;;;;;;1.42;0.80;;;14.20;87.30;;;;;;5035295;28;20028;-77
2022/06/09 03:36:34;;;;;;;1.98;0.80;;;14.10;87.00;;;;;;5035333;28;20440;-77
2022/06/09 03:38:59;;;;;;;1.80;0.90;;;14.20;87.00;;;;;;5035363;28;20033;-76
2022/06/09 03:41:25;;;;;;;1.17;1.02;;;14.20;86.60;;;;;;5035260;28;20032;-76
2022/06/09 03:43:51;;;;;;;2.55;0.90;;;14.20;86.40;;;;;;5035443;28;20048;-77
2022/06/09 03:46:16;;;;;;;2.05;1.23;;;14.10;86.10;;;;;;5035315;28;20632;-76
2022/06/09 03:48:43;;;;;;;2.83;1.10;;;14.10;86.50;;;;;;5035254;28;20481;-77
2022/06/09 03:51:11;;;;;;;3.80;1.38;;;14.10;86.90;;;;;;5035061;28;20032;-77
2022/06/09 03:53:38;;;;;;;2.78;1.10;;;13.90;87.50;;;;;;5034955;28;20059;-77
2022/06/09 03:56:03;;;;;;;0.77;0.57;;;13.70;87.90;;;;;;5035375;28;20021;-77
2022/06/09 03:58:30;;;;;;;1.33;0.98;;;13.50;87.60;;;;;;5035020;28;20021;-77
2022/06/09 04:00:57;;;;;;;2.80;1.40;;;13.40;88.70;;;;;;5035095;28;20021;-76
2022/06/09 04:03:23;;;;;;;5.20;1.40;;;13.30;88.80;;;;;;5034983;28;20438;-76
2022/06/09 04:05:48;;;;;;;4.35;1.23;;;13.30;88.70;;;;;;5034831;28;20052;-77
2022/06/09 04:08:14;;;;;;;4.22;1.45;;;13.30;88.50;;;;;;5035270;28;20035;-77
2022/06/09 04:10:40;;;;;;;5.03;1.25;;;13.20;88.50;;;;;;5034552;28;20030;-77
2022/06/09 04:13:05;;;;;;;3.63;1.48;;;13.10;88.60;;;;;;5034942;28;20124;-77
2022/06/09 04:15:31;;;;;;;3.53;1.40;;;12.90;90.00;;;;;;5034850;28;20017;-77
2022/06/09 04:17:57;;;;;;;6.93;1.63;;;12.90;90.60;;;;;;5034930;28;20025;-76
2022/06/09 04:20:25;;;;;;;3.13;1.42;;;12.80;90.80;;;;;;5035084;28;20025;-76
2022/06/09 04:22:52;;;;;;;6.25;1.70;;;12.90;91.20;;;;;;5036717;28;20480;-77
2022/06/09 04:25:18;;;;;;;4.00;1.48;;;12.80;90.40;;;;;;5036491;28;20163;-77
2022/06/09 04:27:45;;;;;;;3.60;1.50;;;12.70;91.40;;;;;;5035386;28;20022;-76
2022/06/09 04:30:11;;;;;;;7.18;1.50;;;12.80;91.20;;;;;;5034843;28;20374;-77
2022/06/09 04:32:37;;;;;;;5.55;1.77;;;12.90;90.80;;;;;;5034716;28;20033;-76
2022/06/09 04:35:03;;;;;;;3.25;1.33;;;12.90;90.50;;;;;;5034874;28;20025;-76
2022/06/09 04:40:13;;;;;;;5.75;1.70;;;12.90;91.10;;;;;;5052818;28;20384;-76
2022/06/09 04:42:39;;;;;;;4.35;1.42;;;12.90;91.40;;;;;;5034851;28;20516;-76
2022/06/09 04:45:05;;;;;;;6.85;1.40;;;12.90;91.20;;;;;;5038384;28;20028;-77
2022/06/09 04:47:32;;;;;;;3.80;1.23;;;13.00;90.40;;;;;;5038349;28;20086;-77
2022/06/09 04:49:57;;;;;;;5.70;1.60;;;13.10;89.60;;;;;;5038327;28;20405;-77
2022/06/09 04:52:23;;;;;;;2.08;1.10;;;13.10;89.20;;;;;;5038381;28;20033;-77
2022/06/09 04:54:49;;;;;;;3.15;1.40;;;13.10;88.70;;;;;;5038292;28;20355;-77
2022/06/09 04:57:14;;;;;;;2.50;1.20;;;13.10;87.90;;;;;;5038178;28;20032;-77
2022/06/09 04:59:40;;;;;;;6.13;1.75;;;13.30;88.00;;;;;;5038144;28;20021;-76
2022/06/09 05:02:05;;;;;;;4.07;1.33;;;13.30;87.70;;;;;;5038377;28;20021;-76
2022/06/09 05:04:31;;;;;;;3.80;1.38;;;13.30;86.40;;;;;;5038027;28;20111;-76
2022/06/09 05:06:57;;;;;;;5.35;1.00;;;13.40;85.90;;;;;;5038050;28;20031;-77
2022/06/09 05:09:22;;;;;;;5.10;1.27;;;13.50;86.10;;;;;;5037970;28;20104;-77
2022/06/09 05:11:48;;;;;;;2.78;1.10;;;13.60;85.60;;;;;;5037746;28;20017;-77
2022/06/09 05:14:13;;;;;;;3.88;1.48;;;13.60;85.70;;;;;;5037871;28;20029;-77
2022/06/09 05:16:39;;;;;;;6.90;1.55;;;13.70;85.90;;;;;;5037650;28;20021;-76
2022/06/09 05:19:05;;;;;;;3.38;1.27;;;13.70;86.10;;;;;;5037626;28;20028;-76
2022/06/09 05:21:30;;;;;;;6.13;1.33;;;13.80;86.10;;;;;;5037754;28;20036;-76
2022/06/09 05:23:56;;;;;;;4.22;1.65;;;13.70;85.80;;;;;;5037843;28;20151;-76
2022/06/09 05:26:24;;;;;;;7.43;2.00;;;13.80;86.00;;;;;;5037471;28;20083;-77
2022/06/09 05:28:49;;;;;;;3.53;1.40;;;13.90;85.70;;;;;;5037516;28;20021;-76
2022/06/09 05:31:15;;;;;;;4.47;1.67;;;14.00;85.30;;;;;;5037275;28;20033;-76
2022/06/09 05:33:42;;;;;;;3.92;1.30;;;14.00;84.30;;;;;;5037523;28;20025;-76
2022/06/09 05:36:07;;;;;;;5.32;1.63;;;14.00;84.90;;;;;;5037434;28;20171;-76
2022/06/09 05:46:47;;;;;;;4.97;1.50;;;13.80;85.80;;;;;;5055482;28;20091;-77
2022/06/09 05:49:14;;;;;;;5.60;1.35;;;13.90;85.40;;;;;;5037126;28;20044;-77
2022/06/09 05:51:40;;;;;;;3.38;1.20;;;13.90;84.80;;;;;;5037173;28;20033;-77
2022/06/09 05:54:05;;;;;;;3.40;1.20;;;13.90;85.30;;;;;;5036603;28;20017;-77
2022/06/09 05:56:31;;;;;;;6.95;1.73;;;13.90;85.80;;;;;;5036428;28;20036;-77
2022/06/09 05:58:57;;;;;;;4.57;1.80;;;13.90;85.80;;;;;;5037071;28;20025;-77
2022/06/09 06:01:22;;;;;;;4.15;1.85;;;13.90;85.00;;;;;;5036676;28;20378;-77
2022/06/09 06:03:49;;;;;;;4.80;1.45;;;14.00;84.90;;;;;;5036678;28;20021;-77
2022/06/09 06:09:04;;;;;;;5.63;1.77;;;13.90;85.50;;;;;;5055005;28;20036;-77
2022/06/09 06:11:30;;;;;;;5.18;1.70;;;13.80;84.40;;;;;;5036143;28;20021;-77
2022/06/09 06:13:56;;;;;;;6.88;1.23;;;13.80;84.80;;;;;;5036478;28;20055;-77
2022/06/09 06:16:23;;;;;;;4.47;1.60;;;14.00;84.30;;;;;;5036390;28;20021;-77
2022/06/09 06:18:49;;;;;;;5.35;1.30;;;13.90;83.60;;;;;;5036345;28;20032;-76
2022/06/09 06:21:16;;;;;;;2.22;1.10;;;13.90;85.50;;;;;;5036439;28;20029;-76
2022/06/09 06:23:43;;;;;;;5.80;1.20;;;13.90;83.60;;;;;;5054142;28;20461;-77
2022/06/09 06:26:09;;;;;;;3.25;1.20;;;13.90;83.20;;;;;;5036511;28;20032;-77
2022/06/09 06:28:35;;;;;;;4.25;1.27;;;13.90;83.80;;;;;;5036237;28;20017;-76
2022/06/09 06:31:00;;;;;;;10.07;1.80;;;14.00;84.30;;;;;;5036048;28;20060;-76
2022/06/09 06:33:27;;;;;;;5.90;1.48;;;13.90;83.00;;;;;;5036543;28;20037;-74
2022/06/09 06:35:52;;;;;;;5.40;1.50;;;14.20;82.80;;;;;;5052612;28;20501;-74
2022/06/09 06:38:18;;;;;;;6.55;1.08;;;14.70;83.30;;;;;;5035847;28;20056;-72
2022/06/09 06:40:44;;;;;;;14.48;2.53;;;14.70;79.90;;;;;;5036135;28;20465;-73
2022/06/09 06:43:09;;;;;;;7.80;1.75;;;14.90;79.60;;;;;;5036068;28;20024;-73
2022/06/09 06:45:35;;;;;;;10.07;1.95;;;15.00;79.80;;;;;;5035756;28;20417;-73
2022/06/09 06:48:01;;;;;;;8.27;1.52;;;15.30;77.70;;;;;;5035783;28;20029;-73
2022/06/09 06:50:26;;;;;;;3.03;1.10;;;15.10;76.50;;;;;;5035691;28;20437;-76
2022/06/09 06:52:52;;;;;;;4.93;1.15;;;15.30;75.90;;;;;;5036136;28;20440;-75
2022/06/09 06:55:20;;;;;;;5.93;1.17;;;15.20;74.90;;;;;;5036006;28;20025;-73
2022/06/09 06:57:46;;;;;;;6.32;2.47;;;15.40;75.10;;;;;;5035906;28;20032;-75
2022/06/09 07:00:16;;;;;;;5.22;1.20;;;15.40;75.60;;;;;;5035928;28;20381;-75
2022/06/09 07:02:41;;;;;;;5.45;1.38;;;15.30;77.20;;;;;;5035685;28;20355;-75
2022/06/09 07:05:08;;;;;;;4.32;1.05;;;15.50;75.60;;;;;;5053218;28;20028;-73
2022/06/09 07:07:34;;;;;;;5.78;1.35;;;15.50;75.40;;;;;;5053276;28;20021;-74
2022/06/09 07:10:00;;;;;;;5.97;1.20;;;15.30;75.60;;;;;;5053219;28;20017;-75
2022/06/09 07:12:26;;;;;;;5.30;1.13;;;15.30;76.20;;;;;;5053136;28;20610;-74
2022/06/09 07:14:51;;;;;;;6.60;1.10;;;15.50;75.70;;;;;;5052970;28;20103;-76
2022/06/09 07:17:17;;;;;;;6.05;1.58;;;15.50;73.80;;;;;;5053217;28;20033;-74
2022/06/09 07:19:43;;;;;;;4.57;1.05;;;15.00;75.00;;;;;;5053095;28;20021;-75
2022/06/09 07:22:09;;;;;;;7.25;1.83;;;15.00;75.30;;;;;;5035002;28;20053;-73
2022/06/09 07:24:34;;;;;;;3.85;1.13;;;15.20;76.30;;;;;;5053022;28;20025;-75
2022/06/09 07:27:00;;;;;;;9.60;1.55;;;15.40;75.50;;;;;;5053258;28;20478;-76
2022/06/09 07:29:26;;;;;;;7.90;1.42;;;15.20;74.20;;;;;;5052998;28;20028;-74
2022/06/09 07:31:52;;;;;;;3.58;0.90;;;15.20;73.70;;;;;;5052879;28;20025;-74
2022/06/09 07:34:18;;;;;;;3.83;1.20;;;15.20;73.90;;;;;;5052988;28;20029;-74
2022/06/09 07:36:45;;;;;;;4.97;2.08;;;15.20;73.60;;;;;;5035550;28;20029;-76
2022/06/09 07:39:10;;;;;;;4.22;1.40;;;15.50;73.00;;;;;;5052783;28;20039;-75
2022/06/09 07:41:37;;;;;;;5.57;1.00;;;15.70;72.20;;;;;;5052744;28;20033;-77
2022/06/09 07:44:05;;;;;;;5.05;1.10;;;15.50;72.70;;;;;;5052592;28;20442;-78
2022/06/09 07:46:31;;;;;;;5.13;1.30;;;15.20;74.00;;;;;;5052775;28;20078;-77
2022/06/09 07:48:58;;;;;;;5.72;1.20;;;15.20;74.60;;;;;;5045604;28;20052;-81
2022/06/09 07:51:24;;;;;;;7.47;1.50;;;15.30;74.90;;;;;;5032804;28;20474;-77
2022/06/09 07:53:51;;;;;;;7.35;1.60;;;14.90;74.30;;;;;;5032913;28;20053;-76
2022/06/09 07:56:17;;;;;;;12.05;1.27;;;14.80;74.80;;;;;;5032593;28;20025;-76
2022/06/09 07:58:43;;;;;;;5.75;1.10;;;14.90;76.10;;;;;;5032635;28;20030;-79
2022/06/09 08:01:10;;;;;;;4.80;1.38;;;14.70;75.10;;;;;;5015736;28;20482;-80
2022/06/09 08:03:39;;;;;;;9.00;1.75;;;14.70;74.40;;;;;;5032956;28;20049;-77
2022/06/09 08:06:05;;;;;;;4.68;1.35;;;14.60;75.20;;;;;;5015580;28;20382;-78
2022/06/09 08:08:30;;;;;;;7.78;1.33;;;14.90;75.90;;;;;;5032534;28;20026;-79
2022/06/09 08:10:56;;;;;;;6.88;1.20;;;15.10;75.60;;;;;;5032825;28;20484;-79
2022/06/09 08:13:21;;;;;;;6.68;1.27;;;15.50;73.60;;;;;;5032604;28;20021;-76
2022/06/09 08:15:47;;;;;;;6.65;1.15;;;15.90;71.60;;;;;;5014867;28;20109;-77
2022/06/09 08:18:13;;;;;;;7.97;1.20;;;16.10;70.40;;;;;;5033606;28;20465;-77
2022/06/09 08:20:40;;;;;;;5.10;1.10;;;16.00;70.10;;;;;;5036571;28;20386;-78
2022/06/09 08:23:21;;;;;;;4.97;1.45;;;16.00;69.80;;;;;;5018466;28;20438;-77
2022/06/09 08:25:48;;;;;;;9.23;1.50;;;16.00;71.30;;;;;;5036557;28;20029;-77
2022/06/09 08:28:18;;;;;;;8.43;1.20;;;16.10;70.10;;;;;;5036043;28;20087;-77
2022/06/09 08:30:45;;;;;;;5.35;1.30;;;16.40;66.10;;;;;;5036355;28;20021;-78
2022/06/09 08:33:11;;;;;;;3.30;0.82;;;16.60;67.00;;;;;;5036133;28;20041;-77
2022/06/09 08:35:37;;;;;;;6.78;1.02;;;16.80;65.80;;;;;;5035961;28;20084;-75
2022/06/09 08:38:05;;;;;;;4.05;1.10;;;16.70;62.40;;;;;;5036049;28;20060;-79
2022/06/09 08:40:52;;;;;;;4.35;0.93;;;16.60;63.10;;;;;;5035974;28;20033;-79
2022/06/09 08:43:32;;;;;;;6.13;0.90;;;16.60;65.00;;;;;;5035992;28;20076;-79
2022/06/09 08:46:24;;;;;;;6.35;1.15;;;16.40;64.90;;;;;;5036394;28;20025;-78
2022/06/09 08:48:54;;;;;;;5.65;0.93;;;16.40;61.60;;;;;;5041880;28;20045;-79
2022/06/09 08:51:43;;;;;;;6.43;0.82;;;16.40;61.10;;;;;;5055814;28;20076;-79
2022/06/09 08:54:20;;;;;;;3.67;0.95;;;16.20;61.90;;;;;;5055714;28;20021;-79
2022/06/09 08:56:48;;;;;;;4.97;1.13;;;16.30;61.10;;;;;;5055602;28;20055;-79
2022/06/09 08:59:19;;;;;;;6.80;1.10;;;16.10;63.10;;;;;;5055816;28;20079;-79
2022/06/09 09:02:01;;;;;;;4.78;1.20;;;16.30;63.30;;;;;;5055741;28;20592;-79
2022/06/09 09:04:43;;;;;;;6.47;1.10;;;16.50;62.70;;;;;;5055926;28;20049;-80
2022/06/09 09:07:27;;;;;;;3.63;0.90;;;16.80;60.90;;;;;;5055662;28;20017;-80
2022/06/09 09:10:19;;;;;;;3.30;0.90;;;16.80;62.90;;;;;;5055722;28;20075;-80
2022/06/09 09:13:07;;;;;;;3.75;1.00;;;16.80;60.50;;;;;;5054651;28;20041;-80
2022/06/09 09:15:46;;;;;;;7.82;3.20;;;17.20;62.00;;;;;;5055562;28;20455;-79
2022/06/09 09:18:23;;;;;;;4.70;0.80;;;17.40;58.20;;;;;;5055603;28;20063;-79
2022/06/09 09:21:12;;;;;;;6.65;1.17;;;17.10;59.80;;;;;;5037457;28;20492;-80
2022/06/09 09:23:46;;;;;;;5.13;0.90;;;16.90;60.10;;;;;;5055224;28;20025;-79
2022/06/09 09:26:23;;;;;;;3.70;0.70;;;16.60;60.80;;;;;;5055281;28;20029;-80
2022/06/09 09:29:18;;;;;;;4.93;1.02;;;16.40;61.90;;;;;;5037010;28;20025;-80
2022/06/09 09:31:56;;;;;;;1.63;0.70;;;16.40;60.90;;;;;;5054810;28;20040;-79
2022/06/09 09:34:35;;;;;;;5.03;1.38;;;16.40;60.90;;;;;;5055072;28;20036;-79
2022/06/09 09:37:25;;;;;;;3.60;1.05;;;16.30;64.40;;;;;;5055132;28;20029;-79
2022/06/09 09:40:01;;;;;;;7.30;1.23;;;16.20;63.40;;;;;;5054907;28;20028;-79
2022/06/09 09:42:32;;;;;;;5.18;1.10;;;16.00;64.70;;;;;;5054840;28;20032;-80
2022/06/09 09:45:16;;;;;;;5.60;1.00;;;16.00;64.50;;;;;;5054960;28;20029;-80
2022/06/09 09:47:54;;;;;;;7.03;1.40;;;15.60;65.80;;;;;;5054827;28;20075;-79
2022/06/09 09:50:52;;;;;;;6.85;1.05;;;15.80;63.80;;;;;;5054692;28;20393;-79
2022/06/09 09:53:18;;;;;;;3.83;1.20;;;15.90;64.50;;;;;;5010222;28;20045;-80
2022/06/09 09:56:03;;;;;;;4.78;0.88;;;16.20;62.50;;;;;;5054535;28;20013;-80
2022/06/09 09:58:36;;;;;;;5.47;1.30;;;16.00;62.20;;;;;;5054585;28;20025;-80
2022/06/09 10:01:05;;;;;;;5.63;1.08;;;16.10;63.10;;;;;;5036559;28;20468;-80
2022/06/09 10:09:29;;;;;;;3.97;1.00;;;15.80;62.70;;;;;;5042295;28;20036;-79
2022/06/09 10:12:22;;;;;;;5.80;1.05;;;15.60;65.80;;;;;;5033067;28;20034;-79
2022/06/09 10:14:52;;;;;;;5.03;0.82;;;15.90;65.30;;;;;;5008990;28;20033;-79
2022/06/09 10:17:41;;;;;;;2.92;0.85;;;16.20;65.80;;;;;;5054196;28;20024;-80
2022/06/09 10:20:34;;;;;;;7.57;1.30;;;16.30;63.40;;;;;;5035739;28;20029;-80
2022/06/09 10:23:16;;;;;;;3.17;1.00;;;16.50;63.10;;;;;;5035638;28;20039;-80
2022/06/09 10:26:04;;;;;;;4.70;1.10;;;16.70;60.70;;;;;;5036419;28;20048;-80
2022/06/09 10:28:46;;;;;;;4.88;0.82;;;17.00;61.30;;;;;;5053692;28;20544;-81
2022/06/09 10:31:36;;;;;;;6.20;1.05;;;17.30;60.00;;;;;;5054033;28;20112;-81
2022/06/09 10:34:17;;;;;;;3.70;1.08;;;17.60;59.70;;;;;;5053930;28;20035;-80
2022/06/09 10:36:46;;;;;;;4.03;0.77;;;17.90;57.00;;;;;;5035965;28;20025;-79
2022/06/09 10:39:22;;;;;;;3.03;0.80;;;17.70;55.80;;;;;;5035815;28;20111;-79
2022/06/09 10:41:54;;;;;;;4.35;0.60;;;17.20;57.10;;;;;;5035797;28;20433;-79
2022/06/09 10:44:44;;;;;;;6.22;0.68;;;16.40;63.80;;;;;;5053673;28;20021;-79
2022/06/09 10:56:27;;;;;;;;;;;15.00;76.80;;;;;;5054118;28;20027;-80
2022/06/09 10:58:59;;;;;;;2.38;0.70;;;15.00;73.00;;;;;;5035624;28;19951;-80
2022/06/09 11:01:29;;;;;;;3.88;0.82;;;15.20;72.90;;;;;;5053534;28;20014;-78
2022/06/09 11:03:55;;;;;;;7.97;1.13;;;15.30;73.40;;;;;;5035561;28;20048;-79
2022/06/09 11:06:35;;;;;;;3.85;1.30;;;15.30;73.20;;;;;;5035460;28;20048;-79
2022/06/09 11:09:10;;;;;;;4.28;1.00;;;15.20;68.70;;;;;;5053446;28;20155;-80
2022/06/09 11:12:06;;;;;;;2.08;0.70;;;15.10;70.20;;;;;;5053057;28;20025;-80
2022/06/09 11:14:45;;;;;;;3.78;1.00;;;15.20;67.70;;;;;;5053207;28;20198;-80
2022/06/09 11:17:34;;;;;;;3.55;0.98;;;15.20;67.10;;;;;;5053274;28;20065;-79
2022/06/09 11:20:11;;;;;;;3.95;1.02;;;15.30;66.60;;;;;;5053280;28;20108;-79
2022/06/09 11:22:46;;;;;;;4.43;1.00;;;15.40;70.20;;;;;;5035032;28;20017;-79
2022/06/09 11:25:22;;;;;;;4.82;0.90;;;15.50;67.00;;;;;;5053167;28;20075;-79
2022/06/09 11:28:18;;;;;;;2.47;0.57;;;15.40;67.30;;;;;;5052995;28;20017;-79
2022/06/09 11:30:53;;;;;;;;;;;15.50;64.00;;;;;;5035645;28;20063;-79
2022/06/09 11:33:40;;;;;;;0.77;0.60;;;15.50;65.00;;;;;;5052756;28;19959;-79
2022/06/09 11:36:19;;;;;;;4.03;0.63;;;15.70;65.00;;;;;;5052827;28;20385;-79
2022/06/09 11:38:57;;;;;;;4.97;0.75;;;15.90;63.50;;;;;;5052523;28;20032;-79
2022/06/09 11:41:34;;;;;;;3.05;0.80;;;15.90;62.20;;;;;;5052788;28;20024;-80
2022/06/09 11:44:26;;;;;;;3.45;0.93;;;16.00;62.30;;;;;;5034955;28;20029;-79
2022/06/09 11:46:55;;;;;;;3.85;0.98;;;15.80;62.00;;;;;;5052676;28;20021;-80
2022/06/09 11:49:38;;;;;;;6.45;0.95;;;15.70;64.20;;;;;;5052317;28;20057;-79
2022/06/09 11:52:06;;;;;;;4.93;1.15;;;15.50;65.50;;;;;;5034478;28;20040;-79
2022/06/09 11:54:53;;;;;;;6.40;1.30;;;15.40;65.70;;;;;;5052345;28;20017;-79
2022/06/09 11:57:27;;;;;;;6.45;1.20;;;15.30;66.90;;;;;;5052727;28;20028;-80
2022/06/09 12:00:02;;;;;;;3.97;0.82;;;15.30;66.70;;;;;;5052974;28;20024;-78
2022/06/09 12:02:40;;;;;;;4.63;1.30;;;15.50;67.70;;;;;;5052753;28;20036;-79
2022/06/09 12:05:28;;;;;;;4.35;0.95;;;15.50;67.00;;;;;;5052663;28;20501;-79
2022/06/09 12:08:05;;;;;;;5.45;1.17;;;15.50;68.10;;;;;;5052821;28;20021;-79
2022/06/09 12:10:55;;;;;;;5.35;1.40;;;15.50;67.00;;;;;;5052566;28;20025;-80
2022/06/09 12:13:28;;;;;;;9.52;1.25;;;15.60;68.30;;;;;;5052223;28;20068;-78
2022/06/09 12:16:38;;;;;;;3.22;1.08;;;15.80;67.80;;;;;;5052571;28;20019;-79
2022/06/09 12:19:13;;;;;;;9.10;1.30;;;16.00;65.10;;;;;;5052092;28;20029;-79
2022/06/09 12:21:42;;;;;;;5.78;1.10;;;15.70;65.10;;;;;;5052593;28;20132;-79
2022/06/09 12:24:13;;;;;;;6.88;1.63;;;15.50;65.70;;;;;;5052356;28;20021;-80
2022/06/09 12:26:39;;;;;;;3.60;1.20;;;15.40;66.00;;;;;;5052184;28;20021;-80
2022/06/09 12:29:30;;;;;;;3.15;1.20;;;15.50;66.50;;;;;;5052314;28;20466;-79
2022/06/09 12:32:08;;;;;;;3.50;1.17;;;15.70;64.70;;;;;;5016250;28;20045;-80
2022/06/09 12:34:51;;;;;;;5.78;1.38;;;16.10;62.80;;;;;;5052295;28;20108;-78
2022/06/09 12:37:29;;;;;;;5.07;0.80;;;16.40;61.50;;;;;;5052309;28;20056;-79
2022/06/09 12:40:14;;;;;;;4.68;0.93;;;16.60;61.10;;;;;;5052026;28;20482;-79
2022/06/09 12:42:48;;;;;;;6.28;1.15;;;16.80;61.70;;;;;;5034135;28;20033;-79
2022/06/09 12:45:24;;;;;;;2.00;0.90;;;16.50;60.90;;;;;;5051958;28;20021;-78
2022/06/09 12:47:59;;;;;;;2.75;0.70;;;16.60;59.00;;;;;;5052195;28;20025;-81
2022/06/09 12:50:37;;;;;;;1.58;0.70;;;16.60;58.90;;;;;;5051489;28;20037;-80
2022/06/09 12:53:07;;;;;;;3.30;0.60;;;16.80;56.80;;;;;;5051845;28;20496;-81
2022/06/09 12:55:35;;;;;;;0.95;0.40;;;17.00;56.00;;;;;;5034368;28;20025;-79
2022/06/09 12:58:09;;;;;;;3.72;0.73;;;17.10;54.60;;;;;;5052169;28;20056;-78
2022/06/09 13:00:41;;;;;;;2.63;0.65;;;17.10;55.70;;;;;;5052053;28;20017;-79
2022/06/09 13:03:44;;;;;;;2.22;0.50;;;17.20;55.80;;;;;;5052045;28;20025;-78
2022/06/09 13:06:20;;;;;;;3.53;1.05;;;17.70;54.40;;;;;;5043175;28;20544;-78
2022/06/09 13:08:49;;;;;;;13.18;1.20;;;18.00;54.10;;;;;;5055527;28;20021;-77
2022/06/09 13:14:27;;;;;;;1.85;0.47;;;18.20;49.30;;;;;;5036832;28;20516;-77
2022/06/09 13:17:00;;;;;;;3.60;0.70;;;18.60;48.60;;;;;;5055216;28;20021;-79
2022/06/09 13:19:28;;;;;;;2.38;0.50;;;19.00;47.80;;;;;;5055336;28;20057;-78
2022/06/09 13:21:56;;;;;;;3.15;0.80;;;19.30;48.70;;;;;;5055127;28;20028;-78
2022/06/09 13:24:32;;;;;;;4.07;1.35;;;19.60;46.60;;;;;;5037011;28;20021;-79
2022/06/09 13:26:58;;;;;;;4.47;1.30;;;19.50;44.30;;;;;;5054614;28;20044;-78
2022/06/09 13:29:28;;;;;;;4.20;1.13;;;19.10;45.20;;;;;;5054936;28;20035;-79
2022/06/09 13:32:24;;;;;;;4.28;1.30;;;18.80;46.70;;;;;;5055046;28;20033;-77
2022/06/09 13:34:59;;;;;;;6.40;1.15;;;18.60;48.70;;;;;;5055089;28;20433;-79
2022/06/09 13:37:44;;;;;;;13.35;1.27;;;18.50;49.00;;;;;;5036897;28;20021;-78
2022/06/09 13:40:18;;;;;;;3.83;1.00;;;18.70;51.50;;;;;;5054732;28;20517;-77
2022/06/09 13:42:56;;;;;;;5.22;1.00;;;18.90;49.10;;;;;;5054953;28;20096;-78
2022/06/09 13:45:38;;;;;;;3.53;1.00;;;19.00;49.30;;;;;;5055067;28;20144;-79